createdAt,value
2018-04-26T00:00:07.288Z,100738.20
2018-04-26T00:02:35.711Z,100737.00
2018-04-26T00:05:03.991Z,100737.53
2018-04-26T00:07:32.285Z,100737.98
2018-04-26T00:10:00.527Z,100738.11
2018-04-26T00:12:28.954Z,100733.34
2018-04-26T00:14:57.218Z,100736.47
2018-04-26T00:17:25.840Z,100726.48
2018-04-26T00:19:54.138Z,100729.46
2018-04-26T00:22:23.094Z,100736.73
2018-04-26T00:24:51.402Z,100737.56
2018-04-26T00:27:19.692Z,100734.94
2018-04-26T00:29:47.937Z,100735.34
2018-04-26T00:32:16.230Z,100735.78
2018-04-26T00:34:44.469Z,100737.16
2018-04-26T00:37:12.754Z,100737.31
2018-04-26T00:39:41.097Z,100748.10
2018-04-26T00:42:09.551Z,100737.06
2018-04-26T00:44:37.798Z,100739.77
2018-04-26T00:47:06.105Z,100734.86
2018-04-26T00:49:34.344Z,100732.70
2018-04-26T00:52:02.632Z,100736.38
2018-04-26T00:54:30.942Z,100737.75
2018-04-26T00:56:59.237Z,100741.59
2018-04-26T00:59:27.506Z,100745.81
2018-04-26T01:01:56.055Z,100740.61
2018-04-26T01:04:24.310Z,100744.44
2018-04-26T01:06:52.638Z,100745.81
2018-04-26T01:09:20.898Z,100750.31
2018-04-26T01:11:49.184Z,100745.81
2018-04-26T01:14:17.458Z,100744.83
2018-04-26T01:16:45.758Z,100751.12
2018-04-26T01:19:14.145Z,100743.61
2018-04-26T01:21:42.563Z,100739.40
2018-04-26T01:24:11.018Z,100738.16
2018-04-26T01:26:39.295Z,100743.50
2018-04-26T01:29:07.575Z,100744.02
2018-04-26T01:31:35.871Z,100748.23
2018-04-26T01:34:04.450Z,100742.50
2018-04-26T01:36:41.670Z,100742.74
2018-04-26T01:39:09.946Z,100738.67
2018-04-26T01:41:38.235Z,100738.34
2018-04-26T01:44:06.615Z,100739.85
2018-04-26T01:46:35.115Z,100742.96
2018-04-26T01:49:03.797Z,100743.14
2018-04-26T01:51:32.090Z,100744.75
2018-04-26T01:54:00.629Z,100748.39
2018-04-26T01:56:28.936Z,100743.32
2018-04-26T01:58:57.186Z,100740.70
2018-04-26T02:01:25.462Z,100752.02
2018-04-26T02:03:53.767Z,100751.22
2018-04-26T02:06:22.051Z,100753.89
2018-04-26T02:08:50.339Z,100754.95
2018-04-26T02:11:18.818Z,100750.05
2018-04-26T02:13:47.101Z,100753.98
2018-04-26T02:16:15.394Z,100752.75
2018-04-26T02:18:44.551Z,100751.64
2018-04-26T02:21:12.961Z,100748.39
2018-04-26T02:23:41.975Z,100752.88
2018-04-26T02:26:10.267Z,100747.64
2018-04-26T02:28:38.622Z,100750.41
2018-04-26T02:31:06.906Z,100753.42
2018-04-26T02:33:35.259Z,100744.69
2018-04-26T02:36:03.651Z,100743.47
2018-04-26T02:38:32.074Z,100745.09
2018-04-26T02:41:03.164Z,100744.95
2018-04-26T02:43:31.524Z,100738.34
2018-04-26T02:45:59.818Z,100744.47
2018-04-26T02:48:28.102Z,100745.39
2018-04-26T02:50:56.379Z,100740.52
2018-04-26T02:53:24.694Z,100734.00
2018-04-26T02:55:53.300Z,100732.88
2018-04-26T02:58:21.940Z,100731.66
2018-04-26T03:00:50.287Z,100738.61
2018-04-26T03:03:18.563Z,100740.10
2018-04-26T03:05:46.846Z,100733.55
2018-04-26T03:08:15.378Z,100731.67
2018-04-26T03:10:43.867Z,100736.02
2018-04-26T03:13:12.120Z,100739.13
2018-04-26T03:15:40.383Z,100731.47
2018-04-26T03:18:08.790Z,100729.18
2018-04-26T03:20:37.087Z,100722.52
2018-04-26T03:23:05.519Z,100735.53
2018-04-26T03:25:33.967Z,100728.31
2018-04-26T03:28:02.301Z,100727.47
2018-04-26T03:30:31.012Z,100725.67
2018-04-26T03:32:59.274Z,100736.31
2018-04-26T03:35:27.567Z,100730.83
2018-04-26T03:37:56.341Z,100731.47
2018-04-26T03:40:24.877Z,100737.95
2018-04-26T03:42:53.130Z,100735.33
2018-04-26T03:45:22.146Z,100731.47
2018-04-26T03:47:50.400Z,100732.12
2018-04-26T03:50:18.960Z,100734.16
2018-04-26T03:52:47.423Z,100727.75
2018-04-26T03:55:15.855Z,100723.28
2018-04-26T03:57:44.815Z,100727.39
2018-04-26T04:05:26.693Z,100711.10
2018-04-26T04:07:54.962Z,100719.61
2018-04-26T04:10:23.269Z,100715.37
2018-04-26T04:12:51.568Z,100723.47
2018-04-26T04:15:19.850Z,100723.77
2018-04-26T04:17:48.135Z,100724.19
2018-04-26T04:20:16.426Z,100723.12
2018-04-26T04:22:44.691Z,100724.34
2018-04-26T04:25:13.024Z,100720.80
2018-04-26T04:27:41.294Z,100725.59
2018-04-26T04:30:09.598Z,100719.86
2018-04-26T04:32:38.044Z,100716.08
2018-04-26T04:35:06.346Z,100725.63
2018-04-26T04:37:34.731Z,100723.55
2018-04-26T04:40:02.979Z,100719.19
2018-04-26T04:42:32.002Z,100714.38
2018-04-26T04:45:00.269Z,100715.73
2018-04-26T04:47:29.846Z,100718.05
2018-04-26T04:49:59.711Z,100708.59
2018-04-26T04:52:28.749Z,100712.66
2018-04-26T04:54:57.404Z,100719.34
2018-04-26T04:57:26.636Z,100713.47
2018-04-26T04:59:56.292Z,100717.02
2018-04-26T05:02:25.115Z,100717.28
2018-04-26T05:04:53.685Z,100716.28
2018-04-26T05:07:22.958Z,100720.27
2018-04-26T05:09:53.699Z,100730.22
2018-04-26T05:12:22.456Z,100734.79
2018-04-26T05:14:50.918Z,100735.32
2018-04-26T05:17:19.278Z,100741.83
2018-04-26T05:19:47.778Z,100739.80
2018-04-26T05:22:16.523Z,100738.76
2018-04-26T05:24:45.069Z,100738.73
2018-04-26T05:27:13.756Z,100742.52
2018-04-26T05:29:45.949Z,100746.97
2018-04-26T05:32:15.098Z,100747.77
2018-04-26T05:34:43.548Z,100755.27
2018-04-26T05:37:11.920Z,100753.00
2018-04-26T05:39:40.226Z,100746.38
2018-04-26T05:42:08.919Z,100749.73
2018-04-26T05:44:37.326Z,100739.91
2018-04-26T05:47:05.843Z,100740.02
2018-04-26T05:49:34.112Z,100740.02
2018-04-26T05:52:02.687Z,100743.92
2018-04-26T05:54:31.634Z,100748.44
2018-04-26T05:57:00.316Z,100754.70
2018-04-26T05:59:28.643Z,100759.86
2018-04-26T06:01:57.063Z,100755.89
2018-04-26T06:04:25.317Z,100757.81
2018-04-26T06:06:53.647Z,100760.72
2018-04-26T06:09:21.909Z,100763.42
2018-04-26T06:11:50.231Z,100765.64
2018-04-26T06:14:18.515Z,100767.02
2018-04-26T06:16:46.851Z,100771.14
2018-04-26T06:19:15.092Z,100773.26
2018-04-26T06:21:43.463Z,100770.54
2018-04-26T06:24:11.719Z,100773.14
2018-04-26T06:26:40.103Z,100766.56
2018-04-26T06:29:08.347Z,100775.02
2018-04-26T06:31:36.692Z,100766.70
2018-04-26T06:34:05.143Z,100770.89
2018-04-26T06:36:33.492Z,100777.89
2018-04-26T06:39:01.850Z,100778.63
2018-04-26T06:41:30.208Z,100773.95
2018-04-26T06:43:58.496Z,100773.00
2018-04-26T06:46:26.809Z,100780.40
2018-04-26T06:48:55.079Z,100780.17
2018-04-26T06:51:23.418Z,100775.20
2018-04-26T06:53:51.696Z,100774.69
2018-04-26T06:56:20.440Z,100772.82
2018-04-26T06:58:48.711Z,100773.31
2018-04-26T07:01:17.191Z,100770.98
2018-04-26T07:03:46.026Z,100771.03
2018-04-26T07:06:14.358Z,100771.39
2018-04-26T07:08:42.655Z,100773.30
2018-04-26T07:11:11.314Z,100771.34
2018-04-26T07:13:39.906Z,100772.91
2018-04-26T07:16:08.779Z,100774.79
2018-04-26T07:18:37.044Z,100776.80
2018-04-26T07:21:05.375Z,100781.77
2018-04-26T07:23:33.708Z,100772.36
2018-04-26T07:26:02.093Z,100769.95
2018-04-26T07:28:30.370Z,100765.78
2018-04-26T07:30:59.608Z,100776.93
2018-04-26T07:33:27.870Z,100771.31
2018-04-26T07:35:56.174Z,100775.05
2018-04-26T07:38:24.575Z,100773.38
2018-04-26T07:40:53.144Z,100772.81
2018-04-26T07:43:21.413Z,100774.54
2018-04-26T07:45:49.745Z,100760.88
2018-04-26T07:48:25.155Z,100758.57
2018-04-26T07:50:53.613Z,100755.41
2018-04-26T07:53:21.879Z,100748.13
2018-04-26T07:55:50.180Z,100742.10
2018-04-26T07:58:18.441Z,100748.90
2018-04-26T08:00:46.762Z,100752.92
2018-04-26T08:03:21.546Z,100751.06
2018-04-26T08:05:49.904Z,100748.27
2018-04-26T08:08:18.151Z,100748.48
2018-04-26T08:10:46.463Z,100743.23
2018-04-26T08:13:14.782Z,100743.73
2018-04-26T08:15:43.323Z,100741.81
2018-04-26T08:18:11.759Z,100739.94
2018-04-26T08:20:40.267Z,100742.88
2018-04-26T08:23:08.576Z,100737.30
2018-04-26T08:25:36.889Z,100740.89
2018-04-26T08:28:05.288Z,100742.11
2018-04-26T08:30:33.625Z,100747.05
2018-04-26T08:33:01.894Z,100738.58
2018-04-26T08:35:30.285Z,100742.27
2018-04-26T08:37:58.818Z,100744.17
2018-04-26T08:40:27.162Z,100749.45
2018-04-26T08:42:55.539Z,100740.55
2018-04-26T08:45:23.839Z,100741.40
2018-04-26T08:47:52.307Z,100741.02
2018-04-26T08:50:20.795Z,100755.59
2018-04-26T08:52:49.118Z,100759.28
2018-04-26T08:55:17.559Z,100754.55
2018-04-26T08:57:45.842Z,100771.58
2018-04-26T09:00:14.183Z,100780.50
2018-04-26T09:02:42.455Z,100788.08
2018-04-26T09:05:10.794Z,100802.89
2018-04-26T09:07:39.077Z,100803.27
2018-04-26T09:10:07.583Z,100827.48
2018-04-26T09:12:35.837Z,100833.61
2018-04-26T09:15:04.175Z,100831.14
2018-04-26T09:17:32.613Z,100838.18
2018-04-26T09:20:00.868Z,100844.08
2018-04-26T09:22:29.202Z,100850.36
2018-04-26T09:24:57.816Z,100851.30
2018-04-26T09:27:26.166Z,100853.40
2018-04-26T09:29:54.591Z,100853.27
2018-04-26T09:32:22.882Z,100853.86
2018-04-26T09:34:51.151Z,100852.14
2018-04-26T09:37:19.500Z,100853.49
2018-04-26T09:39:47.839Z,100856.91
2018-04-26T09:42:16.207Z,100842.55
2018-04-26T09:44:44.491Z,100858.16
2018-04-26T09:47:12.814Z,100852.58
2018-04-26T09:49:41.098Z,100859.45
2018-04-26T09:52:09.394Z,100849.17
2018-04-26T09:54:37.670Z,100855.02
2018-04-26T09:57:05.963Z,100843.17
2018-04-26T09:59:34.213Z,100857.59
2018-04-26T10:02:03.530Z,100853.83
2018-04-26T10:04:35.938Z,100845.02
2018-04-26T10:07:04.309Z,100846.81
2018-04-26T10:09:32.540Z,100841.69
2018-04-26T10:12:00.899Z,100841.16
2018-04-26T10:14:29.190Z,100850.70
2018-04-26T10:16:57.574Z,100838.03
2018-04-26T10:19:25.846Z,100837.07
2018-04-26T10:21:54.175Z,100830.66
2018-04-26T10:24:22.487Z,100848.05
2018-04-26T10:26:50.806Z,100832.74
2018-04-26T10:29:19.118Z,100833.08
2018-04-26T10:31:47.419Z,100837.07
2018-04-26T10:34:15.679Z,100839.70
2018-04-26T10:36:43.987Z,100841.83
2018-04-26T10:39:12.291Z,100843.88
2018-04-26T10:41:40.637Z,100850.00
2018-04-26T10:44:09.070Z,100848.12
2018-04-26T10:46:37.370Z,100840.78
2018-04-26T10:49:05.654Z,100838.00
2018-04-26T10:51:33.979Z,100847.94
2018-04-26T10:54:02.284Z,100850.72
2018-04-26T10:56:30.613Z,100850.75
2018-04-26T10:58:58.950Z,100847.98
2018-04-26T11:01:27.271Z,100860.13
2018-04-26T11:03:55.576Z,100851.98
2018-04-26T11:06:23.909Z,100856.38
2018-04-26T11:08:52.159Z,100855.26
2018-04-26T11:11:20.686Z,100854.48
2018-04-26T11:13:49.995Z,100853.22
2018-04-26T11:16:18.406Z,100854.41
2018-04-26T11:18:46.843Z,100848.05
2018-04-26T11:21:15.195Z,100851.13
2018-04-26T11:23:43.405Z,100851.31
2018-04-26T11:26:11.730Z,100849.32
2018-04-26T11:28:39.967Z,100857.28
2018-04-26T11:31:08.642Z,100852.31
2018-04-26T11:33:37.087Z,100866.08
2018-04-26T11:36:05.435Z,100863.31
2018-04-26T11:38:33.690Z,100873.03
2018-04-26T11:41:02.012Z,100863.09
2018-04-26T11:43:30.255Z,100869.97
2018-04-26T11:45:58.563Z,100861.94
2018-04-26T11:48:26.815Z,100864.63
2018-04-26T11:50:55.240Z,100856.92
2018-04-26T11:53:23.482Z,100844.31
2018-04-26T11:55:51.803Z,100869.57
2018-04-26T11:58:20.107Z,100866.53
2018-04-26T12:00:48.779Z,100864.86
2018-04-26T12:03:18.239Z,100863.50
2018-04-26T12:05:46.559Z,100867.52
2018-04-26T12:08:14.846Z,100871.36
2018-04-26T12:10:43.175Z,100876.59
2018-04-26T12:13:11.525Z,100873.94
2018-04-26T12:15:39.764Z,100868.92
2018-04-26T12:18:08.039Z,100871.23
2018-04-26T12:20:36.396Z,100877.61
2018-04-26T12:23:04.812Z,100877.16
2018-04-26T12:25:33.109Z,100884.02
2018-04-26T12:28:01.411Z,100878.61
2018-04-26T12:30:29.751Z,100889.26
2018-04-26T12:32:58.539Z,100882.18
2018-04-26T12:35:26.961Z,100872.56
2018-04-26T12:37:55.858Z,100869.18
2018-04-26T12:40:24.196Z,100873.15
2018-04-26T12:42:52.478Z,100875.33
2018-04-26T12:45:20.795Z,100881.25
2018-04-26T12:47:49.298Z,100892.34
2018-04-26T12:50:17.634Z,100897.03
2018-04-26T12:52:45.928Z,100909.61
2018-04-26T12:55:14.244Z,100889.88
2018-04-26T12:57:43.343Z,100881.81
2018-04-26T13:00:11.659Z,100885.69
2018-04-26T13:02:40.108Z,100885.00
2018-04-26T13:05:08.455Z,100890.91
2018-04-26T13:07:36.809Z,100914.05
2018-04-26T13:10:05.222Z,100923.00
2018-04-26T13:12:33.723Z,100909.77
2018-04-26T13:15:01.944Z,100903.55
2018-04-26T13:17:30.533Z,100909.69
2018-04-26T13:19:58.937Z,100937.50
2018-04-26T13:22:27.599Z,100933.73
2018-04-26T13:24:55.925Z,100909.31
2018-04-26T13:27:25.661Z,100913.70
2018-04-26T13:29:54.346Z,100918.04
2018-04-26T13:32:22.720Z,100922.30
2018-04-26T13:34:50.974Z,100921.56
2018-04-26T13:37:19.287Z,100922.27
2018-04-26T13:39:47.637Z,100924.73
2018-04-26T13:42:15.955Z,100937.88
2018-04-26T13:44:44.483Z,100938.42
2018-04-26T13:47:12.826Z,100933.33
2018-04-26T13:49:41.112Z,100933.75
2018-04-26T13:52:09.468Z,100940.78
2018-04-26T13:54:37.772Z,100934.24
2018-04-26T13:57:06.205Z,100940.77
2018-04-26T13:59:34.471Z,100933.76
2018-04-26T14:02:02.956Z,100937.16
2018-04-26T14:04:31.240Z,100931.81
2018-04-26T14:06:59.640Z,100940.47
2018-04-26T14:09:27.968Z,100932.62
2018-04-26T14:11:56.299Z,100938.73
2018-04-26T14:14:24.705Z,100931.63
2018-04-26T14:16:53.194Z,100920.09
2018-04-26T14:19:21.837Z,100919.77
2018-04-26T14:21:50.419Z,100926.11
2018-04-26T14:24:18.678Z,100918.09
2018-04-26T14:26:47.131Z,100927.34
2018-04-26T14:29:15.472Z,100943.71
2018-04-26T14:31:43.834Z,100930.95
2018-04-26T14:34:12.212Z,100941.66
2018-04-26T14:36:40.606Z,100939.53
2018-04-26T14:39:08.878Z,100936.88
2018-04-26T14:41:37.395Z,100926.55
2018-04-26T14:44:06.578Z,100936.10
2018-04-26T14:46:34.926Z,100937.03
2018-04-26T14:49:03.180Z,100945.80
2018-04-26T14:51:31.494Z,100954.42
2018-04-26T14:54:00.175Z,100955.13
2018-04-26T14:56:28.479Z,100948.55
2018-04-26T14:58:56.755Z,100980.57
2018-04-26T15:01:25.070Z,100991.10
2018-04-26T15:03:53.517Z,101018.88
2018-04-26T15:06:21.871Z,101014.38
2018-04-26T15:08:50.579Z,101031.12
2018-04-26T15:11:18.912Z,101028.19
2018-04-26T15:13:47.205Z,101041.70
2018-04-26T15:16:15.595Z,101039.80
2018-04-26T15:18:43.920Z,101041.54
2018-04-26T15:21:12.302Z,101055.33
2018-04-26T15:23:40.939Z,101046.45
2018-04-26T15:26:09.703Z,101048.66
2018-04-26T15:28:39.720Z,101038.70
2018-04-26T15:31:08.976Z,101046.49
2018-04-26T15:33:37.278Z,101049.97
2018-04-26T15:36:07.947Z,101045.27
2018-04-26T15:38:38.385Z,101040.41
2018-04-26T15:41:07.026Z,101035.45
2018-04-26T15:43:35.703Z,101030.31
2018-04-26T15:46:04.813Z,101023.39
2018-04-26T15:48:34.017Z,101027.42
2018-04-26T15:51:02.559Z,101023.29
2018-04-26T15:54:41.280Z,101026.55
2018-04-26T15:57:24.230Z,101024.90
2018-04-26T16:00:04.195Z,101037.06
2018-04-26T16:02:45.281Z,101038.99
2018-04-26T16:05:27.537Z,101040.06
2018-04-26T16:08:11.340Z,101053.61
2018-04-26T16:10:55.157Z,101056.91
2018-04-26T16:15:03.968Z,101062.41
2018-04-26T16:19:49.447Z,101062.63
2018-04-26T16:22:48.123Z,101063.91
2018-04-26T16:25:27.707Z,101066.17
2018-04-26T16:31:03.840Z,101070.18
2018-04-26T16:33:41.544Z,101077.98
2018-04-26T16:36:17.907Z,101074.20
2018-04-26T16:39:03.211Z,101082.06
2018-04-26T16:41:37.943Z,101089.21
2018-04-26T16:44:08.423Z,101079.59
2018-04-26T16:46:37.614Z,101086.64
2018-04-26T16:49:06.893Z,101083.41
2018-04-26T16:51:35.314Z,101083.02
2018-04-26T16:54:03.614Z,101089.94
2018-04-26T16:56:32.158Z,101088.84
2018-04-26T16:59:00.731Z,101092.62
2018-04-26T17:01:29.854Z,101102.39
2018-04-26T17:03:58.607Z,101099.33
2018-04-26T17:06:27.483Z,101104.09
2018-04-26T17:08:59.793Z,101098.62
2018-04-26T17:11:28.492Z,101096.17
2018-04-26T17:14:00.048Z,101096.55
2018-04-26T17:16:30.339Z,101096.73
2018-04-26T17:18:59.479Z,101094.05
2018-04-26T17:21:30.464Z,101093.73
2018-04-26T17:23:59.612Z,101092.13
2018-04-26T17:26:28.187Z,101088.79
2018-04-26T17:28:59.218Z,101090.89
2018-04-26T17:31:28.634Z,101101.42
2018-04-26T17:33:56.922Z,101097.26
2018-04-26T17:36:25.527Z,101103.61
2018-04-26T17:38:58.409Z,101103.94
2018-04-26T17:41:28.846Z,101106.72
2018-04-26T17:43:57.619Z,101105.89
2018-04-26T17:46:25.923Z,101108.14
2018-04-26T17:48:55.015Z,101112.45
2018-04-26T17:51:24.268Z,101118.08
2018-04-26T17:53:52.938Z,101128.09
2018-04-26T17:56:21.361Z,101129.88
2018-04-26T17:58:51.035Z,101137.34
2018-04-26T18:01:19.542Z,101141.09
2018-04-26T18:03:48.231Z,101148.50
2018-04-26T18:06:18.412Z,101149.27
2018-04-26T18:08:50.209Z,101151.98
2018-04-26T18:11:19.739Z,101155.59
2018-04-26T18:13:48.106Z,101157.77
2018-04-26T18:16:16.563Z,101150.98
2018-04-26T18:18:44.812Z,101161.72
2018-04-26T18:21:13.380Z,101162.44
2018-04-26T18:23:41.990Z,101167.89
2018-04-26T18:26:10.369Z,101165.21
2018-04-26T18:28:38.621Z,101157.20
2018-04-26T18:31:07.879Z,101163.29
2018-04-26T18:33:36.356Z,101160.19
2018-04-26T18:36:08.050Z,101170.22
2018-04-26T18:38:38.658Z,101168.61
2018-04-26T18:41:08.195Z,101166.01
2018-04-26T18:43:39.750Z,101162.45
2018-04-26T18:46:09.490Z,101170.81
2018-04-26T18:48:40.622Z,101182.48
2018-04-26T18:51:09.165Z,101156.38
2018-04-26T18:53:41.555Z,101189.77
2018-04-26T18:56:10.322Z,101191.56
2018-04-26T18:58:38.590Z,101197.59
2018-04-26T19:01:08.806Z,101197.32
2018-04-26T19:03:37.813Z,101195.70
2018-04-26T19:06:06.538Z,101203.09
2018-04-26T19:08:41.630Z,101209.92
2018-04-26T19:11:18.433Z,101203.09
2018-04-26T19:13:50.934Z,101206.77
2018-04-26T19:16:22.322Z,101213.08
2018-04-26T19:18:51.376Z,101217.44
2018-04-26T19:21:21.985Z,101217.86
2018-04-26T19:23:53.175Z,101227.69
2018-04-26T19:26:21.487Z,101229.87
2018-04-26T19:28:49.754Z,101230.41
2018-04-26T19:31:18.075Z,101233.95
2018-04-26T19:33:46.367Z,101233.80
2018-04-26T19:36:14.684Z,101239.23
2018-04-26T19:38:43.011Z,101244.80
2018-04-26T19:41:11.314Z,101241.40
2018-04-26T19:43:39.661Z,101243.00
2018-04-26T19:46:08.178Z,101243.08
2018-04-26T19:48:36.691Z,101252.36
2018-04-26T19:51:07.003Z,101258.66
2018-04-26T19:53:35.521Z,101253.34
2018-04-26T19:56:04.634Z,101259.61
2018-04-26T19:58:33.075Z,101254.69
2018-04-26T20:01:02.012Z,101254.41
2018-04-26T20:03:33.734Z,101262.84
2018-04-26T20:06:02.660Z,101259.20
2018-04-26T20:08:32.009Z,101252.19
2018-04-26T20:11:01.350Z,101259.44
2018-04-26T20:13:30.808Z,101259.31
2018-04-26T20:16:03.648Z,101261.37
2018-04-26T20:18:32.011Z,101257.13
2018-04-26T20:21:00.315Z,101260.02
2018-04-26T20:23:28.659Z,101253.30
2018-04-26T20:25:57.030Z,101254.64
2018-04-26T20:28:25.547Z,101253.94
2018-04-26T20:30:53.995Z,101262.30
2018-04-26T20:33:26.469Z,101265.73
2018-04-26T20:35:56.844Z,101257.78
2018-04-26T20:38:28.760Z,101259.87
2018-04-26T20:40:57.647Z,101256.31
2018-04-26T20:43:25.970Z,101258.40
2018-04-26T20:45:54.291Z,101256.59
2018-04-26T20:48:31.479Z,101250.33
2018-04-26T20:51:03.004Z,101261.91
2018-04-26T20:53:32.211Z,101268.64
2018-04-26T20:56:00.562Z,101274.00
2018-04-26T20:58:28.978Z,101259.77
2018-04-26T21:00:57.294Z,101262.15
2018-04-26T21:03:25.594Z,101264.35
2018-04-26T21:05:55.138Z,101274.69
2018-04-26T21:08:23.497Z,101265.45
2018-04-26T21:10:51.871Z,101276.69
2018-04-26T21:13:22.707Z,101275.26
2018-04-26T21:15:52.488Z,101269.30
2018-04-26T21:18:21.416Z,101271.14
2018-04-26T21:20:52.733Z,101272.94
2018-04-26T21:23:21.819Z,101270.72
2018-04-26T21:25:50.270Z,101270.88
2018-04-26T21:28:18.624Z,101264.32
2018-04-26T21:30:46.933Z,101256.92
2018-04-26T21:33:15.243Z,101258.59
2018-04-26T21:35:43.764Z,101263.59
2018-04-26T21:38:12.318Z,101267.14
2018-04-26T21:40:40.719Z,101263.81
2018-04-26T21:43:09.393Z,101264.05
2018-04-26T21:45:37.662Z,101263.12
2018-04-26T21:48:05.624Z,101269.92
2018-04-26T21:50:39.143Z,101272.12
2018-04-26T21:53:12.857Z,101278.28
2018-04-26T21:55:46.569Z,101282.23
2018-04-26T21:58:20.101Z,101279.40
2018-04-26T22:00:54.003Z,101279.95
2018-04-26T22:03:22.430Z,101275.40
2018-04-26T22:05:50.890Z,101276.25
2018-04-26T22:08:19.607Z,101279.95
2018-04-26T22:10:47.916Z,101285.05
2018-04-26T22:13:16.195Z,101289.60
2018-04-26T22:15:44.483Z,101292.75
2018-04-26T22:18:12.909Z,101296.87
2018-04-26T22:20:41.213Z,101293.56
2018-04-26T22:23:09.891Z,101292.03
2018-04-26T22:25:38.202Z,101290.43
2018-04-26T22:28:07.051Z,101298.57
2018-04-26T22:30:35.336Z,101290.80
2018-04-26T22:33:03.602Z,101292.73
2018-04-26T22:35:31.899Z,101293.36
2018-04-26T22:38:00.278Z,101287.94
2018-04-26T22:40:28.564Z,101296.25
2018-04-26T22:42:56.821Z,101297.84
2018-04-26T22:45:25.087Z,101288.23
2018-04-26T22:47:53.382Z,101296.91
2018-04-26T22:50:23.348Z,101296.99
2018-04-26T22:52:52.115Z,101289.55
2018-04-26T22:55:20.437Z,101291.31
2018-04-26T22:57:49.016Z,101291.63
2018-04-26T23:00:17.366Z,101289.31
2018-04-26T23:02:48.639Z,101295.84
2018-04-26T23:05:16.983Z,101290.56
2018-04-26T23:07:45.415Z,101290.87
2018-04-26T23:10:13.915Z,101296.75
2018-04-26T23:12:42.165Z,101295.39
2018-04-26T23:15:10.663Z,101295.05
2018-04-26T23:17:38.922Z,101298.95
2018-04-26T23:20:08.460Z,101301.80
2018-04-26T23:22:36.852Z,101296.67
2018-04-26T23:25:05.219Z,101292.30
2018-04-26T23:27:33.491Z,101296.30
2018-04-26T23:30:01.739Z,101290.30
2018-04-26T23:32:30.265Z,101284.02
2018-04-26T23:34:58.506Z,101297.33
2018-04-26T23:37:27.404Z,101306.48
2018-04-26T23:39:55.863Z,101307.14
2018-04-26T23:42:24.152Z,101307.02
2018-04-26T23:44:52.393Z,101305.11
2018-04-26T23:47:20.690Z,101308.45
2018-04-26T23:49:48.948Z,101313.47
2018-04-26T23:52:17.522Z,101308.64
2018-04-26T23:54:45.758Z,101307.80
2018-04-26T23:57:15.389Z,101307.28
2018-04-26T23:59:44.349Z,101295.61
